Time;durP1;ratioP1;P1;durP2;ratioP2;P2;SDS_P1;SDS_P2;PMS_P1;PMS_P2;Temp;Humidity;BMP_temperature;BMP_pressure;BME280_temperature;BME280_humidity;BME280_pressure;Samples;Min_cycle;Max_cycle;Signal;HPM_P1;HPM_P2
2023/06/02 00:00:14;;;;;;;0.00;0.00;;;;;;;;;;1731589;28;20622;-75
2023/06/02 00:01:06;;;;;;;0.00;0.00;;;;;;;;;;1733317;28;20256;-75
2023/06/02 00:01:58;;;;;;;0.00;0.00;;;;;;;;;;1732279;28;20654;-75
2023/06/02 00:02:51;;;;;;;0.00;0.00;;;;;;;;;;1732292;28;20550;-75
2023/06/02 00:03:44;;;;;;;0.00;0.00;;;;;;;;;;1731602;28;20551;-75
2023/06/02 00:04:37;;;;;;;0.00;0.00;;;;;;;;;;1732103;28;20634;-75
2023/06/02 00:05:29;;;;;;;0.00;0.00;;;;;;;;;;1732483;28;20216;-75
2023/06/02 00:06:20;;;;;;;0.00;0.00;;;;;;;;;;1730100;28;20266;-75
2023/06/02 00:07:12;;;;;;;0.00;0.00;;;;;;;;;;1731838;28;20210;-75
2023/06/02 00:08:04;;;;;;;0.00;0.00;;;;;;;;;;1731666;28;20237;-75
2023/06/02 00:08:57;;;;;;;0.00;0.00;;;;;;;;;;1737716;28;20262;-75
2023/06/02 00:09:48;;;;;;;0.00;0.00;;;;;;;;;;1738513;28;20204;-75
2023/06/02 00:10:40;;;;;;;0.00;0.00;;;;;;;;;;1739314;28;20199;-75
2023/06/02 00:11:34;;;;;;;0.00;0.00;;;;;;;;;;1738811;28;20618;-74
2023/06/02 00:12:26;;;;;;;0.00;0.00;;;;;;;;;;1738667;28;20223;-74
2023/06/02 00:13:17;;;;;;;0.00;0.00;;;;;;;;;;1738454;28;20269;-74
2023/06/02 00:14:09;;;;;;;0.00;0.00;;;;;;;;;;1738458;28;20205;-74
2023/06/02 00:15:04;;;;;;;0.00;0.00;;;;;;;;;;1738395;28;20310;-74
2023/06/02 00:15:56;;;;;;;0.00;0.00;;;;;;;;;;1738566;28;20200;-74
2023/06/02 00:16:48;;;;;;;0.00;0.00;;;;;;;;;;1738203;28;20205;-74
2023/06/02 00:17:39;;;;;;;0.00;0.00;;;;;;;;;;1739187;28;20704;-74
2023/06/02 00:18:33;;;;;;;0.00;0.00;;;;;;;;;;1738133;28;20295;-74
2023/06/02 00:19:25;;;;;;;0.00;0.00;;;;;;;;;;1738983;28;20211;-74
2023/06/02 00:20:17;;;;;;;0.00;0.00;;;;;;;;;;1738554;28;20698;-74
2023/06/02 00:21:08;;;;;;;0.00;0.00;;;;;;;;;;1738969;28;20217;-74
2023/06/02 00:22:02;;;;;;;0.00;0.00;;;;;;;;;;1738424;28;20211;-74
2023/06/02 00:22:54;;;;;;;0.00;0.00;;;;;;;;;;1741397;28;20651;-75
2023/06/02 00:23:46;;;;;;;0.00;0.00;;;;;;;;;;1738377;28;20204;-75
2023/06/02 00:24:37;;;;;;;0.00;0.00;;;;;;;;;;1738831;28;20599;-75
2023/06/02 00:25:29;;;;;;;0.00;0.00;;;;;;;;;;1739048;28;20592;-74
2023/06/02 00:26:20;;;;;;;0.00;0.00;;;;;;;;;;1738265;28;20703;-74
2023/06/02 00:27:12;;;;;;;0.00;0.00;;;;;;;;;;1738659;28;20244;-74
2023/06/02 00:28:03;;;;;;;0.00;0.00;;;;;;;;;;1738780;28;20823;-74
2023/06/02 00:28:56;;;;;;;0.00;0.00;;;;;;;;;;1738378;28;20726;-74
2023/06/02 00:29:47;;;;;;;0.00;0.00;;;;;;;;;;1738699;28;20512;-74
2023/06/02 00:30:38;;;;;;;0.00;0.00;;;;;;;;;;1738836;28;20251;-74
2023/06/02 00:31:31;;;;;;;0.00;0.00;;;;;;;;;;1738562;28;20255;-75
2023/06/02 00:32:22;;;;;;;0.00;0.00;;;;;;;;;;1738712;28;20212;-75
2023/06/02 00:33:14;;;;;;;0.00;0.00;;;;;;;;;;1738408;28;20203;-74
2023/06/02 00:34:05;;;;;;;0.00;0.00;;;;;;;;;;1739251;28;20210;-74
2023/06/02 00:34:57;;;;;;;0.00;0.00;;;;;;;;;;1738415;28;20649;-74
2023/06/02 00:35:48;;;;;;;0.00;0.00;;;;;;;;;;1739444;28;20300;-74
2023/06/02 00:36:40;;;;;;;0.00;0.00;;;;;;;;;;1738700;28;20205;-74
2023/06/02 00:37:31;;;;;;;0.00;0.00;;;;;;;;;;1738724;28;20710;-74
2023/06/02 00:38:23;;;;;;;0.00;0.00;;;;;;;;;;1738359;28;20234;-74
2023/06/02 00:39:15;;;;;;;0.00;0.00;;;;;;;;;;1738767;28;20389;-74
2023/06/02 00:40:06;;;;;;;0.00;0.00;;;;;;;;;;1738975;28;20294;-74
2023/06/02 00:40:58;;;;;;;0.00;0.00;;;;;;;;;;1738796;28;20716;-74
2023/06/02 00:41:49;;;;;;;0.00;0.00;;;;;;;;;;1737852;28;20508;-74
2023/06/02 00:42:42;;;;;;;0.00;0.00;;;;;;;;;;1739295;28;20205;-74
2023/06/02 00:43:33;;;;;;;0.00;0.00;;;;;;;;;;1737585;28;20340;-74
2023/06/02 00:44:25;;;;;;;0.00;0.00;;;;;;;;;;1739087;28;20544;-74
2023/06/02 00:45:16;;;;;;;0.00;0.00;;;;;;;;;;1738807;28;20540;-74
2023/06/02 00:46:08;;;;;;;0.00;0.00;;;;;;;;;;1739297;28;20199;-74
2023/06/02 00:47:00;;;;;;;0.00;0.00;;;;;;;;;;1738534;28;20203;-74
2023/06/02 00:47:52;;;;;;;0.00;0.00;;;;;;;;;;1738909;28;20200;-75
2023/06/02 00:48:43;;;;;;;0.00;0.00;;;;;;;;;;1738784;28;20509;-75
2023/06/02 00:49:35;;;;;;;0.00;0.00;;;;;;;;;;1739131;28;20637;-75
2023/06/02 00:50:26;;;;;;;0.00;0.00;;;;;;;;;;1738939;28;20208;-75
2023/06/02 00:51:18;;;;;;;0.00;0.00;;;;;;;;;;1738662;28;20287;-75
2023/06/02 00:52:10;;;;;;;0.00;0.00;;;;;;;;;;1738746;28;20518;-75
2023/06/02 00:53:02;;;;;;;0.00;0.00;;;;;;;;;;1741900;28;20210;-75
2023/06/02 00:53:53;;;;;;;0.00;0.00;;;;;;;;;;1738621;28;20666;-75
2023/06/02 00:54:45;;;;;;;0.00;0.00;;;;;;;;;;1738944;28;20572;-74
2023/06/02 00:55:36;;;;;;;0.00;0.00;;;;;;;;;;1739310;28;20242;-74
2023/06/02 00:56:29;;;;;;;0.00;0.00;;;;;;;;;;1738466;28;20261;-74
2023/06/02 00:57:21;;;;;;;0.00;0.00;;;;;;;;;;1738488;28;20220;-74
2023/06/02 00:58:13;;;;;;;0.00;0.00;;;;;;;;;;1738272;28;20620;-74
2023/06/02 00:59:04;;;;;;;0.00;0.00;;;;;;;;;;1738894;28;20514;-74
2023/06/02 00:59:56;;;;;;;0.00;0.00;;;;;;;;;;1738215;28;20499;-74
2023/06/02 01:00:48;;;;;;;0.00;0.00;;;;;;;;;;1739019;28;20191;-74
2023/06/02 01:01:40;;;;;;;0.00;0.00;;;;;;;;;;1738360;28;20295;-74
2023/06/02 01:02:34;;;;;;;0.00;0.00;;;;;;;;;;1738591;28;20204;-74
2023/06/02 01:03:26;;;;;;;0.00;0.00;;;;;;;;;;1738313;28;20551;-74
2023/06/02 01:04:19;;;;;;;0.00;0.00;;;;;;;;;;1738846;28;20546;-74
2023/06/02 01:05:10;;;;;;;0.00;0.00;;;;;;;;;;1740477;28;20681;-74
2023/06/02 01:06:02;;;;;;;0.00;0.00;;;;;;;;;;1740695;28;20214;-74
2023/06/02 01:06:55;;;;;;;0.00;0.00;;;;;;;;;;1740131;28;20211;-74
2023/06/02 01:07:46;;;;;;;0.00;0.00;;;;;;;;;;1741070;28;20199;-74
2023/06/02 01:08:39;;;;;;;0.00;0.00;;;;;;;;;;1740494;28;20196;-74
2023/06/02 01:09:30;;;;;;;0.00;0.00;;;;;;;;;;1741124;28;20213;-74
2023/06/02 01:10:23;;;;;;;0.00;0.00;;;;;;;;;;1740610;28;20211;-74
2023/06/02 01:11:14;;;;;;;0.00;0.00;;;;;;;;;;1740695;28;20200;-74
2023/06/02 01:12:06;;;;;;;0.00;0.00;;;;;;;;;;1740363;28;20206;-74
2023/06/02 01:12:57;;;;;;;0.00;0.00;;;;;;;;;;1740625;28;20204;-75
2023/06/02 01:13:49;;;;;;;0.00;0.00;;;;;;;;;;1740641;28;20214;-74
2023/06/02 01:14:40;;;;;;;0.00;0.00;;;;;;;;;;1740813;28;20203;-74
2023/06/02 01:15:32;;;;;;;0.00;0.00;;;;;;;;;;1740886;28;20208;-74
2023/06/02 01:16:23;;;;;;;0.00;0.00;;;;;;;;;;1740369;28;20265;-74
2023/06/02 01:17:17;;;;;;;0.00;0.00;;;;;;;;;;1740555;28;20224;-74
2023/06/02 01:18:10;;;;;;;0.00;0.00;;;;;;;;;;1740743;28;20248;-74
2023/06/02 01:19:02;;;;;;;0.00;0.00;;;;;;;;;;1740454;28;20213;-74
2023/06/02 01:19:54;;;;;;;0.00;0.00;;;;;;;;;;1740565;28;20203;-74
2023/06/02 01:20:51;;;;;;;0.00;0.00;;;;;;;;;;1740792;28;20522;-74
2023/06/02 01:21:44;;;;;;;0.00;0.00;;;;;;;;;;1740629;28;20257;-74
2023/06/02 01:22:40;;;;;;;0.00;0.00;;;;;;;;;;1741876;28;20274;-74
2023/06/02 01:23:34;;;;;;;0.00;0.00;;;;;;;;;;1740825;28;20211;-74
2023/06/02 01:24:30;;;;;;;0.00;0.00;;;;;;;;;;1740837;28;20269;-74
2023/06/02 01:25:22;;;;;;;0.00;0.00;;;;;;;;;;1740604;28;20210;-74
2023/06/02 01:26:14;;;;;;;0.00;0.00;;;;;;;;;;1738223;28;20640;-74
2023/06/02 01:27:06;;;;;;;0.00;0.00;;;;;;;;;;1740290;28;20276;-74
2023/06/02 01:27:58;;;;;;;0.00;0.00;;;;;;;;;;1740588;28;20218;-74
2023/06/02 01:28:49;;;;;;;0.00;0.00;;;;;;;;;;1740245;28;20213;-74
2023/06/02 01:29:41;;;;;;;0.00;0.00;;;;;;;;;;1741095;28;20200;-74
2023/06/02 01:30:32;;;;;;;0.00;0.00;;;;;;;;;;1739866;28;20237;-74
2023/06/02 01:31:27;;;;;;;0.00;0.00;;;;;;;;;;1740564;28;20196;-74
2023/06/02 01:32:19;;;;;;;0.00;0.00;;;;;;;;;;1740606;28;20611;-74
2023/06/02 01:33:13;;;;;;;0.00;0.00;;;;;;;;;;1740433;28;20201;-74
2023/06/02 01:34:09;;;;;;;0.00;0.00;;;;;;;;;;1737511;28;20648;-74
2023/06/02 01:35:03;;;;;;;0.00;0.00;;;;;;;;;;1737442;28;20416;-74
2023/06/02 01:35:58;;;;;;;0.00;0.00;;;;;;;;;;1740007;28;20681;-74
2023/06/02 01:36:51;;;;;;;0.00;0.00;;;;;;;;;;1740091;28;20199;-74
2023/06/02 01:37:45;;;;;;;0.00;0.00;;;;;;;;;;1740932;28;20203;-74
2023/06/02 01:38:37;;;;;;;0.00;0.00;;;;;;;;;;1740288;28;20300;-74
2023/06/02 01:39:30;;;;;;;0.00;0.00;;;;;;;;;;1740683;28;20202;-74
2023/06/02 01:40:22;;;;;;;0.00;0.00;;;;;;;;;;1738856;28;20215;-74
2023/06/02 01:41:14;;;;;;;0.00;0.00;;;;;;;;;;1737943;28;20218;-74
2023/06/02 01:42:06;;;;;;;0.00;0.00;;;;;;;;;;1739432;28;20208;-74
2023/06/02 01:43:00;;;;;;;0.00;0.00;;;;;;;;;;1740717;28;20203;-74
2023/06/02 01:43:51;;;;;;;0.00;0.00;;;;;;;;;;1740305;28;20211;-74
2023/06/02 01:44:44;;;;;;;0.00;0.00;;;;;;;;;;1740872;28;20211;-74
2023/06/02 01:45:36;;;;;;;0.00;0.00;;;;;;;;;;1739918;28;20393;-74
2023/06/02 01:46:28;;;;;;;0.00;0.00;;;;;;;;;;1740392;28;20257;-74
2023/06/02 01:47:19;;;;;;;0.00;0.00;;;;;;;;;;1740615;28;20212;-74
2023/06/02 01:48:11;;;;;;;0.00;0.00;;;;;;;;;;1740334;28;20204;-74
2023/06/02 01:49:02;;;;;;;0.00;0.00;;;;;;;;;;1740665;28;20263;-74
2023/06/02 01:49:53;;;;;;;0.00;0.00;;;;;;;;;;1740175;28;20256;-74
2023/06/02 01:50:45;;;;;;;0.00;0.00;;;;;;;;;;1740251;28;20369;-75
2023/06/02 01:51:36;;;;;;;0.00;0.00;;;;;;;;;;1736986;28;20269;-75
2023/06/02 01:52:28;;;;;;;0.00;0.00;;;;;;;;;;1741243;28;20416;-75
2023/06/02 01:53:20;;;;;;;0.00;0.00;;;;;;;;;;1742620;28;20634;-75
2023/06/02 01:54:12;;;;;;;0.00;0.00;;;;;;;;;;1740508;28;20217;-75
2023/06/02 01:55:05;;;;;;;0.00;0.00;;;;;;;;;;1740814;28;20211;-75
2023/06/02 01:55:58;;;;;;;0.00;0.00;;;;;;;;;;1739809;28;20247;-75
2023/06/02 01:56:49;;;;;;;0.00;0.00;;;;;;;;;;1739952;28;20215;-75
2023/06/02 01:57:41;;;;;;;0.00;0.00;;;;;;;;;;1741051;28;20204;-75
2023/06/02 01:58:32;;;;;;;0.00;0.00;;;;;;;;;;1739875;28;20219;-75
2023/06/02 01:59:23;;;;;;;0.03;0.03;;;;;;;;;;1740967;28;20199;-75
2023/06/02 02:00:15;;;;;;;0.00;0.00;;;;;;;;;;1739574;28;20303;-75
2023/06/02 02:01:06;;;;;;;0.00;0.00;;;;;;;;;;1740781;28;21117;-75
2023/06/02 02:01:58;;;;;;;0.00;0.00;;;;;;;;;;1738983;28;20232;-75
2023/06/02 02:02:50;;;;;;;0.00;0.00;;;;;;;;;;1740598;28;20250;-75
2023/06/02 02:03:42;;;;;;;0.00;0.00;;;;;;;;;;1740376;28;20208;-75
2023/06/02 02:04:34;;;;;;;0.00;0.00;;;;;;;;;;1740309;28;20246;-75
2023/06/02 02:05:26;;;;;;;0.00;0.00;;;;;;;;;;1740108;28;20229;-75
2023/06/02 02:06:17;;;;;;;0.00;0.00;;;;;;;;;;1740182;28;20269;-75
2023/06/02 02:07:11;;;;;;;0.00;0.00;;;;;;;;;;1740244;28;20260;-75
2023/06/02 02:08:02;;;;;;;0.00;0.00;;;;;;;;;;1735893;28;20209;-75
2023/06/02 02:08:54;;;;;;;0.00;0.00;;;;;;;;;;1739590;28;20232;-75
2023/06/02 02:09:46;;;;;;;0.00;0.00;;;;;;;;;;1740981;28;20276;-75
2023/06/02 02:10:39;;;;;;;0.00;0.00;;;;;;;;;;1739530;28;20743;-75
2023/06/02 02:11:30;;;;;;;0.00;0.00;;;;;;;;;;1740593;28;20687;-74
2023/06/02 02:12:22;;;;;;;0.00;0.00;;;;;;;;;;1740499;28;20218;-74
2023/06/02 02:13:13;;;;;;;0.00;0.00;;;;;;;;;;1739704;28;20219;-74
2023/06/02 02:14:05;;;;;;;0.00;0.00;;;;;;;;;;1740473;28;20218;-74
2023/06/02 02:14:58;;;;;;;0.00;0.00;;;;;;;;;;1740082;28;20403;-74
2023/06/02 02:15:50;;;;;;;0.00;0.00;;;;;;;;;;1739989;28;20219;-74
2023/06/02 02:16:44;;;;;;;0.00;0.00;;;;;;;;;;1737941;28;20207;-74
2023/06/02 02:17:36;;;;;;;0.00;0.00;;;;;;;;;;1739639;28;20288;-74
2023/06/02 02:18:27;;;;;;;0.00;0.00;;;;;;;;;;1739269;28;20495;-74
2023/06/02 02:19:22;;;;;;;0.00;0.00;;;;;;;;;;1739446;28;20600;-74
2023/06/02 02:20:14;;;;;;;0.05;0.05;;;;;;;;;;1738947;28;20594;-74
2023/06/02 02:21:06;;;;;;;0.00;0.00;;;;;;;;;;1739141;28;20215;-74
2023/06/02 02:21:57;;;;;;;0.00;0.00;;;;;;;;;;1738850;28;20618;-74
2023/06/02 02:22:49;;;;;;;0.00;0.00;;;;;;;;;;1742924;28;20197;-74
2023/06/02 02:23:40;;;;;;;0.00;0.00;;;;;;;;;;1739222;28;20306;-74
2023/06/02 02:24:32;;;;;;;0.00;0.00;;;;;;;;;;1739543;28;20510;-74
2023/06/02 02:25:24;;;;;;;0.00;0.00;;;;;;;;;;1738327;28;20269;-75
2023/06/02 02:26:18;;;;;;;0.00;0.00;;;;;;;;;;1739164;28;20210;-75
2023/06/02 02:27:10;;;;;;;0.00;0.00;;;;;;;;;;1738220;28;20323;-75
2023/06/02 02:28:01;;;;;;;0.00;0.00;;;;;;;;;;1739231;28;20208;-75
2023/06/02 02:28:53;;;;;;;0.00;0.00;;;;;;;;;;1739133;28;20286;-74
2023/06/02 02:29:45;;;;;;;0.00;0.00;;;;;;;;;;1739596;28;20513;-74
2023/06/02 02:30:37;;;;;;;0.00;0.00;;;;;;;;;;1738631;28;20275;-74
2023/06/02 02:31:28;;;;;;;0.00;0.00;;;;;;;;;;1739308;28;20272;-74
2023/06/02 02:32:19;;;;;;;0.00;0.00;;;;;;;;;;1739290;28;20209;-74
2023/06/02 02:33:12;;;;;;;0.00;0.00;;;;;;;;;;1739289;28;20533;-74
2023/06/02 02:34:03;;;;;;;0.00;0.00;;;;;;;;;;1739202;28;20762;-74
2023/06/02 02:34:55;;;;;;;0.00;0.00;;;;;;;;;;1739049;28;20682;-74
2023/06/02 02:35:46;;;;;;;0.00;0.00;;;;;;;;;;1739201;28;20235;-74
2023/06/02 02:36:39;;;;;;;0.00;0.00;;;;;;;;;;1738823;28;20209;-74
2023/06/02 02:37:31;;;;;;;0.00;0.00;;;;;;;;;;1739379;28;20204;-74
2023/06/02 02:38:23;;;;;;;0.00;0.00;;;;;;;;;;1738958;28;20242;-74
2023/06/02 02:39:14;;;;;;;0.00;0.00;;;;;;;;;;1739403;28;20202;-74
2023/06/02 02:40:07;;;;;;;0.00;0.00;;;;;;;;;;1739287;28;20553;-74
2023/06/02 02:40:58;;;;;;;0.00;0.00;;;;;;;;;;1735931;28;20304;-75
2023/06/02 02:41:50;;;;;;;0.00;0.00;;;;;;;;;;1737739;28;20340;-75
2023/06/02 02:42:42;;;;;;;0.00;0.00;;;;;;;;;;1739616;28;20203;-75
2023/06/02 02:43:33;;;;;;;0.00;0.00;;;;;;;;;;1738993;28;20206;-75
2023/06/02 02:44:25;;;;;;;0.00;0.00;;;;;;;;;;1739201;28;20268;-75
2023/06/02 02:45:16;;;;;;;0.00;0.00;;;;;;;;;;1738592;28;20206;-74
2023/06/02 02:46:08;;;;;;;0.00;0.00;;;;;;;;;;1736438;28;20228;-74
2023/06/02 02:46:59;;;;;;;0.00;0.00;;;;;;;;;;1738869;28;20689;-74
2023/06/02 02:47:51;;;;;;;0.00;0.00;;;;;;;;;;1739404;28;20198;-74
2023/06/02 02:48:42;;;;;;;0.00;0.00;;;;;;;;;;1738872;28;20644;-74
2023/06/02 02:49:34;;;;;;;0.00;0.00;;;;;;;;;;1739025;28;20676;-74
2023/06/02 02:50:25;;;;;;;0.00;0.00;;;;;;;;;;1737979;28;20590;-75
2023/06/02 02:51:17;;;;;;;0.00;0.00;;;;;;;;;;1736453;28;20204;-74
2023/06/02 02:52:08;;;;;;;0.00;0.00;;;;;;;;;;1738721;28;20238;-74
2023/06/02 02:53:01;;;;;;;0.00;0.00;;;;;;;;;;1742740;28;20207;-74
2023/06/02 02:53:52;;;;;;;0.00;0.00;;;;;;;;;;1739025;28;20211;-74
2023/06/02 02:54:43;;;;;;;0.00;0.00;;;;;;;;;;1739527;28;20279;-74
2023/06/02 02:55:37;;;;;;;0.00;0.00;;;;;;;;;;1738610;28;20230;-74
2023/06/02 02:56:28;;;;;;;0.00;0.00;;;;;;;;;;1738731;28;20205;-74
2023/06/02 02:57:21;;;;;;;0.00;0.00;;;;;;;;;;1739381;28;20625;-74
2023/06/02 02:58:18;;;;;;;0.00;0.00;;;;;;;;;;1739014;28;20214;-74
2023/06/02 02:59:12;;;;;;;0.00;0.00;;;;;;;;;;1739345;28;20203;-73
2023/06/02 03:00:05;;;;;;;0.00;0.00;;;;;;;;;;1739458;28;20225;-74
2023/06/02 03:00:57;;;;;;;0.00;0.00;;;;;;;;;;1738367;28;20230;-73
2023/06/02 03:01:48;;;;;;;0.00;0.00;;;;;;;;;;1738249;28;20206;-74
2023/06/02 03:02:40;;;;;;;0.00;0.00;;;;;;;;;;1739343;28;20218;-74
2023/06/02 03:03:32;;;;;;;0.00;0.00;;;;;;;;;;1739270;28;20260;-74
2023/06/02 03:04:24;;;;;;;0.00;0.00;;;;;;;;;;1739689;28;20302;-74
2023/06/02 03:05:15;;;;;;;0.00;0.00;;;;;;;;;;1738556;28;20215;-74
2023/06/02 03:06:07;;;;;;;0.00;0.00;;;;;;;;;;1740085;28;20209;-74
2023/06/02 03:06:59;;;;;;;0.00;0.00;;;;;;;;;;1738936;28;20211;-74
2023/06/02 03:07:51;;;;;;;0.00;0.00;;;;;;;;;;1739882;28;20203;-74
2023/06/02 03:08:42;;;;;;;0.00;0.00;;;;;;;;;;1738805;28;20272;-74
2023/06/02 03:09:34;;;;;;;0.00;0.00;;;;;;;;;;1739577;28;20223;-74
2023/06/02 03:10:25;;;;;;;0.00;0.00;;;;;;;;;;1738876;28;20495;-74
2023/06/02 03:11:16;;;;;;;0.00;0.00;;;;;;;;;;1739564;28;20195;-74
2023/06/02 03:12:09;;;;;;;0.00;0.00;;;;;;;;;;1739383;28;20811;-74
2023/06/02 03:13:01;;;;;;;0.00;0.00;;;;;;;;;;1736520;28;20632;-74
2023/06/02 03:13:53;;;;;;;0.00;0.00;;;;;;;;;;1739326;28;20219;-74
2023/06/02 03:14:44;;;;;;;0.00;0.00;;;;;;;;;;1739587;28;20207;-74
2023/06/02 03:15:36;;;;;;;0.00;0.00;;;;;;;;;;1737528;28;20326;-74
2023/06/02 03:16:28;;;;;;;0.00;0.00;;;;;;;;;;1737333;28;20202;-74
2023/06/02 03:17:20;;;;;;;0.00;0.00;;;;;;;;;;1738450;28;20242;-74
2023/06/02 03:18:12;;;;;;;0.00;0.00;;;;;;;;;;1739089;28;20215;-74
2023/06/02 03:19:03;;;;;;;0.00;0.00;;;;;;;;;;1739097;28;20217;-74
2023/06/02 03:19:55;;;;;;;0.00;0.00;;;;;;;;;;1738761;28;20202;-74
2023/06/02 03:20:48;;;;;;;0.00;0.00;;;;;;;;;;1736519;28;20233;-74
2023/06/02 03:21:42;;;;;;;0.00;0.00;;;;;;;;;;1738324;28;20218;-74
2023/06/02 03:22:33;;;;;;;0.00;0.00;;;;;;;;;;1740459;28;20213;-74
2023/06/02 03:23:27;;;;;;;0.00;0.00;;;;;;;;;;1740507;28;20199;-74
2023/06/02 03:24:19;;;;;;;0.00;0.00;;;;;;;;;;1739218;28;20591;-74
2023/06/02 03:25:11;;;;;;;0.00;0.00;;;;;;;;;;1738678;28;20218;-75
2023/06/02 03:26:02;;;;;;;0.00;0.00;;;;;;;;;;1738261;28;20250;-74
2023/06/02 03:26:55;;;;;;;0.00;0.00;;;;;;;;;;1738563;28;20206;-74
2023/06/02 03:27:46;;;;;;;0.03;0.03;;;;;;;;;;1739062;28;20225;-74
2023/06/02 03:28:41;;;;;;;0.00;0.00;;;;;;;;;;1738321;28;20206;-74
2023/06/02 03:29:32;;;;;;;0.00;0.00;;;;;;;;;;1739192;28;20211;-74
2023/06/02 03:30:24;;;;;;;0.00;0.00;;;;;;;;;;1738124;28;20203;-74
2023/06/02 03:31:15;;;;;;;0.00;0.00;;;;;;;;;;1739141;28;20215;-74
2023/06/02 03:32:10;;;;;;;0.00;0.00;;;;;;;;;;1738757;28;20207;-74
2023/06/02 03:33:01;;;;;;;0.00;0.00;;;;;;;;;;1733693;28;20208;-74
2023/06/02 03:33:53;;;;;;;0.00;0.00;;;;;;;;;;1739025;28;20311;-74
2023/06/02 03:34:44;;;;;;;0.00;0.00;;;;;;;;;;1739823;28;20211;-74
2023/06/02 03:35:36;;;;;;;0.00;0.00;;;;;;;;;;1737980;28;20231;-74
2023/06/02 03:36:29;;;;;;;0.00;0.00;;;;;;;;;;1736979;28;20272;-74
2023/06/02 03:37:20;;;;;;;0.00;0.00;;;;;;;;;;1738840;28;20203;-74
2023/06/02 03:38:12;;;;;;;0.00;0.00;;;;;;;;;;1738860;28;21739;-74
2023/06/02 03:39:04;;;;;;;0.00;0.00;;;;;;;;;;1738868;28;20276;-74
2023/06/02 03:39:56;;;;;;;0.00;0.00;;;;;;;;;;1738691;28;20199;-74
2023/06/02 03:40:47;;;;;;;0.00;0.00;;;;;;;;;;1738560;28;20673;-74
2023/06/02 03:41:39;;;;;;;0.00;0.00;;;;;;;;;;1737410;28;20204;-74
2023/06/02 03:42:30;;;;;;;0.00;0.00;;;;;;;;;;1738720;28;20384;-74
2023/06/02 03:43:22;;;;;;;0.00;0.00;;;;;;;;;;1738828;28;20653;-74
2023/06/02 03:44:14;;;;;;;0.00;0.00;;;;;;;;;;1738873;28;20450;-74
2023/06/02 03:45:07;;;;;;;0.00;0.00;;;;;;;;;;1738742;28;20330;-74
2023/06/02 03:45:58;;;;;;;0.00;0.00;;;;;;;;;;1737902;28;20625;-74
2023/06/02 03:46:50;;;;;;;0.00;0.00;;;;;;;;;;1738632;28;20210;-74
2023/06/02 03:47:41;;;;;;;0.00;0.00;;;;;;;;;;1739094;28;20220;-74
2023/06/02 03:48:33;;;;;;;0.00;0.00;;;;;;;;;;1738360;28;20200;-74
2023/06/02 03:49:27;;;;;;;0.00;0.00;;;;;;;;;;1739076;28;20656;-75
2023/06/02 03:50:19;;;;;;;0.00;0.00;;;;;;;;;;1737998;28;20294;-75
2023/06/02 03:51:10;;;;;;;0.00;0.00;;;;;;;;;;1739115;28;20933;-75
2023/06/02 03:52:02;;;;;;;0.00;0.00;;;;;;;;;;1738464;28;20206;-75
2023/06/02 03:52:53;;;;;;;0.00;0.00;;;;;;;;;;1742775;28;20397;-74
2023/06/02 03:53:45;;;;;;;0.03;0.03;;;;;;;;;;1738914;28;20204;-74
2023/06/02 03:54:36;;;;;;;0.00;0.00;;;;;;;;;;1738764;28;20204;-74
2023/06/02 03:55:28;;;;;;;0.00;0.00;;;;;;;;;;1738369;28;20203;-74
2023/06/02 03:56:19;;;;;;;0.00;0.00;;;;;;;;;;1738453;28;20210;-74
2023/06/02 03:57:11;;;;;;;0.00;0.00;;;;;;;;;;1738556;28;20265;-74
2023/06/02 03:58:02;;;;;;;0.00;0.00;;;;;;;;;;1738862;28;20253;-74
2023/06/02 03:58:54;;;;;;;0.00;0.00;;;;;;;;;;1738285;28;20204;-74
2023/06/02 03:59:47;;;;;;;0.00;0.00;;;;;;;;;;1739197;28;20199;-74
2023/06/02 04:00:39;;;;;;;0.00;0.00;;;;;;;;;;1738142;28;20238;-74
2023/06/02 04:01:31;;;;;;;0.00;0.00;;;;;;;;;;1738459;28;20667;-74
2023/06/02 04:02:23;;;;;;;0.00;0.00;;;;;;;;;;1738417;28;20348;-74
2023/06/02 04:03:14;;;;;;;0.00;0.00;;;;;;;;;;1738517;28;20536;-74
2023/06/02 04:04:06;;;;;;;0.00;0.00;;;;;;;;;;1738929;28;20599;-74
2023/06/02 04:04:57;;;;;;;0.00;0.00;;;;;;;;;;1738261;28;20205;-74
2023/06/02 04:05:50;;;;;;;0.00;0.00;;;;;;;;;;1739433;28;20313;-74
2023/06/02 04:06:41;;;;;;;0.00;0.00;;;;;;;;;;1738547;28;20541;-74
2023/06/02 04:07:33;;;;;;;0.00;0.00;;;;;;;;;;1738669;28;20210;-74
2023/06/02 04:08:24;;;;;;;0.00;0.00;;;;;;;;;;1738013;28;20880;-74
2023/06/02 04:09:17;;;;;;;0.00;0.00;;;;;;;;;;1733089;28;20769;-74
2023/06/02 04:10:08;;;;;;;0.00;0.00;;;;;;;;;;1731539;28;20274;-74
2023/06/02 04:11:00;;;;;;;0.00;0.00;;;;;;;;;;1731158;28;20227;-74
2023/06/02 04:11:51;;;;;;;0.00;0.00;;;;;;;;;;1731611;28;20209;-75
2023/06/02 04:12:43;;;;;;;0.00;0.00;;;;;;;;;;1732036;28;20193;-75
2023/06/02 04:13:35;;;;;;;0.00;0.00;;;;;;;;;;1731142;28;20209;-74
2023/06/02 04:14:27;;;;;;;0.00;0.00;;;;;;;;;;1732496;28;20201;-75
2023/06/02 04:15:19;;;;;;;0.00;0.00;;;;;;;;;;1731272;28;20259;-75
2023/06/02 04:16:11;;;;;;;0.00;0.00;;;;;;;;;;1722198;28;20229;-75
2023/06/02 04:17:03;;;;;;;0.00;0.00;;;;;;;;;;1724415;28;20251;-75
2023/06/02 04:17:55;;;;;;;0.00;0.00;;;;;;;;;;1724862;28;20220;-75
2023/06/02 04:18:46;;;;;;;0.00;0.00;;;;;;;;;;1725211;28;20282;-75
2023/06/02 04:19:38;;;;;;;0.00;0.00;;;;;;;;;;1724825;28;20697;-74
2023/06/02 04:20:29;;;;;;;0.00;0.00;;;;;;;;;;1726738;28;20259;-75
2023/06/02 04:21:21;;;;;;;0.00;0.00;;;;;;;;;;1726778;28;20292;-74
2023/06/02 04:22:12;;;;;;;0.00;0.00;;;;;;;;;;1728596;28;20606;-75
2023/06/02 04:23:04;;;;;;;0.00;0.00;;;;;;;;;;1731113;28;20209;-75
2023/06/02 04:23:55;;;;;;;0.00;0.00;;;;;;;;;;1731713;28;20261;-74
2023/06/02 04:24:47;;;;;;;0.00;0.00;;;;;;;;;;1731986;28;20228;-75
2023/06/02 04:25:38;;;;;;;0.00;0.00;;;;;;;;;;1730945;28;20235;-74
2023/06/02 04:26:30;;;;;;;0.00;0.00;;;;;;;;;;1731519;28;20200;-74
2023/06/02 04:27:21;;;;;;;0.00;0.00;;;;;;;;;;1731328;28;20716;-74
2023/06/02 04:28:13;;;;;;;0.00;0.00;;;;;;;;;;1731477;28;20628;-74
2023/06/02 04:29:05;;;;;;;0.00;0.00;;;;;;;;;;1730724;28;20246;-74
2023/06/02 04:29:58;;;;;;;0.00;0.00;;;;;;;;;;1731303;28;20542;-74
2023/06/02 04:30:53;;;;;;;0.00;0.00;;;;;;;;;;1731557;28;20235;-75
2023/06/02 04:31:47;;;;;;;0.00;0.00;;;;;;;;;;1729200;28;20536;-74
2023/06/02 04:32:38;;;;;;;0.00;0.00;;;;;;;;;;1729668;28;20243;-74
2023/06/02 04:33:31;;;;;;;0.00;0.00;;;;;;;;;;1731199;28;20210;-74
2023/06/02 04:34:22;;;;;;;0.00;0.00;;;;;;;;;;1731927;28;20204;-75
2023/06/02 04:35:14;;;;;;;0.00;0.00;;;;;;;;;;1731369;28;20264;-75
2023/06/02 04:36:07;;;;;;;0.00;0.00;;;;;;;;;;1729676;28;20865;-75
2023/06/02 04:36:59;;;;;;;0.00;0.00;;;;;;;;;;1730637;28;20236;-74
2023/06/02 04:37:50;;;;;;;0.00;0.00;;;;;;;;;;1732113;28;20234;-75
2023/06/02 04:38:45;;;;;;;0.00;0.00;;;;;;;;;;1731214;28;20238;-74
2023/06/02 04:39:36;;;;;;;0.00;0.00;;;;;;;;;;1730795;28;20206;-74
2023/06/02 04:40:28;;;;;;;0.00;0.00;;;;;;;;;;1730710;28;20200;-75
2023/06/02 04:41:19;;;;;;;0.00;0.00;;;;;;;;;;1731283;28;20288;-74
2023/06/02 04:42:11;;;;;;;0.00;0.00;;;;;;;;;;1730864;28;20463;-74
2023/06/02 04:43:02;;;;;;;0.00;0.00;;;;;;;;;;1731847;28;20614;-74
2023/06/02 04:43:56;;;;;;;0.00;0.00;;;;;;;;;;1731689;28;20625;-74
2023/06/02 04:44:48;;;;;;;0.00;0.00;;;;;;;;;;1727336;28;20598;-74
2023/06/02 04:45:45;;;;;;;0.00;0.00;;;;;;;;;;1731103;28;20313;-74
2023/06/02 04:46:37;;;;;;;0.00;0.00;;;;;;;;;;1731510;28;20539;-74
2023/06/02 04:47:29;;;;;;;0.00;0.00;;;;;;;;;;1729388;28;20567;-74
2023/06/02 04:48:21;;;;;;;0.00;0.00;;;;;;;;;;1731372;28;20267;-74
2023/06/02 04:49:13;;;;;;;0.00;0.00;;;;;;;;;;1731769;28;20207;-74
2023/06/02 04:50:05;;;;;;;0.00;0.00;;;;;;;;;;1731837;28;20206;-74
2023/06/02 04:50:56;;;;;;;0.00;0.00;;;;;;;;;;1730664;28;20390;-74
2023/06/02 04:51:49;;;;;;;0.00;0.00;;;;;;;;;;1729800;28;20332;-74
2023/06/02 04:52:40;;;;;;;0.00;0.00;;;;;;;;;;1731255;28;20246;-74
2023/06/02 04:53:32;;;;;;;0.00;0.00;;;;;;;;;;1730108;28;20513;-74
2023/06/02 04:54:23;;;;;;;0.00;0.00;;;;;;;;;;1725848;28;20280;-74
2023/06/02 04:55:15;;;;;;;0.00;0.00;;;;;;;;;;1729220;28;22174;-75
2023/06/02 04:56:07;;;;;;;0.00;0.00;;;;;;;;;;1731294;28;20709;-75
2023/06/02 04:56:59;;;;;;;0.00;0.00;;;;;;;;;;1729750;28;20222;-74
2023/06/02 04:57:50;;;;;;;0.00;0.00;;;;;;;;;;1726339;28;20644;-75
2023/06/02 04:58:42;;;;;;;0.00;0.00;;;;;;;;;;1731213;28;20226;-74
2023/06/02 04:59:33;;;;;;;0.00;0.00;;;;;;;;;;1731611;28;20214;-74
2023/06/02 05:00:25;;;;;;;0.00;0.00;;;;;;;;;;1730756;28;20235;-75
2023/06/02 05:01:16;;;;;;;0.00;0.00;;;;;;;;;;1734660;28;20210;-74
2023/06/02 05:02:10;;;;;;;0.00;0.00;;;;;;;;;;1732776;28;20575;-75
2023/06/02 05:03:01;;;;;;;0.00;0.00;;;;;;;;;;1731567;28;20235;-74
2023/06/02 05:03:55;;;;;;;0.00;0.00;;;;;;;;;;1730806;28;20204;-74
2023/06/02 05:04:48;;;;;;;0.00;0.00;;;;;;;;;;1727634;28;20203;-74
2023/06/02 05:05:42;;;;;;;0.00;0.00;;;;;;;;;;1727172;28;20232;-75
2023/06/02 05:06:35;;;;;;;0.00;0.00;;;;;;;;;;1733077;28;20574;-75
2023/06/02 05:07:29;;;;;;;0.00;0.00;;;;;;;;;;1729701;28;20213;-75
2023/06/02 05:08:22;;;;;;;0.00;0.00;;;;;;;;;;1731428;28;20213;-74
2023/06/02 05:09:14;;;;;;;0.00;0.00;;;;;;;;;;1738403;28;20293;-75
2023/06/02 05:10:06;;;;;;;0.00;0.00;;;;;;;;;;1738468;28;20661;-75
2023/06/02 05:10:58;;;;;;;0.00;0.00;;;;;;;;;;1737699;28;22108;-75
2023/06/02 05:11:49;;;;;;;0.00;0.00;;;;;;;;;;1738576;28;20281;-75